Terminal Aerodrome Forecast
Issued by NWS Louisville, KY

Home | Current Version | Previous Version | Text Only | Print | Product List | Glossary On
Versions: 1 2 3 4 5 6 7 8 9 10 11 12 13 14 15 16 17 18 19
444
FTUS43 KLMK 291734
TAFSDF
TAF
KSDF 291734Z 2918/3024 36006KT P6SM BKN250
     FM300200 01007KT P6SM VCSH BKN080
     FM300800 08009KT P6SM -SHRA BKN040
     FM301300 12010KT 5SM -SHRA VCTS BKN025CB
      TEMPO 3014/3018 3SM -TSRA BKN015CB
     FM301800 12007KT P6SM VCSH BKN025=

USA.gov is the U.S. government's official web portal to all federal, state and local government web resources and services.